createdAt,value
2023-01-31T00:00:38.635Z,4.8
2023-01-31T00:01:48.121Z,4.9
2023-01-31T00:02:55.272Z,4.7
2023-01-31T00:04:02.347Z,5
2023-01-31T00:05:09.676Z,5.8
2023-01-31T00:06:17.520Z,5.6
2023-01-31T00:07:30.268Z,5
2023-01-31T00:08:37.537Z,5.4
2023-01-31T00:09:44.656Z,4.9
2023-01-31T00:10:51.622Z,4.6
2023-01-31T00:11:58.985Z,3.7
2023-01-31T00:13:06.822Z,4.4
2023-01-31T00:14:15.149Z,4.4
2023-01-31T00:15:22.644Z,3.9
2023-01-31T00:16:31.265Z,3.8
2023-01-31T00:17:38.861Z,3.7
2023-01-31T00:18:46.736Z,3.7
2023-01-31T00:19:54.330Z,3.6
2023-01-31T00:21:01.493Z,3.7
2023-01-31T00:22:13.879Z,4
2023-01-31T00:23:20.825Z,3.9
2023-01-31T00:24:29.033Z,3.8
2023-01-31T00:25:36.300Z,4.3
2023-01-31T00:26:43.873Z,4.8
2023-01-31T00:27:51.941Z,4
2023-01-31T00:29:00.821Z,3.8
2023-01-31T00:30:09.545Z,3.4
2023-01-31T00:31:17.104Z,3.8
2023-01-31T00:32:24.011Z,3.8
2023-01-31T00:33:31.669Z,3.7
2023-01-31T00:34:38.957Z,3.8
2023-01-31T00:35:47.324Z,3.5
2023-01-31T00:36:54.428Z,3.4
2023-01-31T00:38:02.621Z,3
2023-01-31T00:39:10.030Z,3.3
2023-01-31T00:40:16.941Z,4.4
2023-01-31T00:41:24.784Z,4.5
2023-01-31T00:42:32.222Z,2.9
2023-01-31T00:43:41.896Z,3.1
2023-01-31T00:44:49.089Z,3
2023-01-31T00:45:57.218Z,2.8
2023-01-31T00:47:04.252Z,2.9
2023-01-31T00:48:11.321Z,2.3
2023-01-31T00:49:18.546Z,2.5
2023-01-31T00:50:26.818Z,2.5
2023-01-31T00:51:34.730Z,2.3
2023-01-31T00:52:42.536Z,2.6
2023-01-31T00:53:50.064Z,2.5
2023-01-31T00:54:58.109Z,2.3
2023-01-31T00:56:06.294Z,3.1
2023-01-31T00:57:14.446Z,2.8
2023-01-31T00:58:21.636Z,2.8
2023-01-31T00:59:29.608Z,2.6
2023-01-31T01:00:37.599Z,2.3
2023-01-31T01:01:44.712Z,2.7
2023-01-31T01:02:52.565Z,2.3
2023-01-31T01:03:59.867Z,2.2
2023-01-31T01:05:07.874Z,2.4
2023-01-31T01:06:16.232Z,2.5
2023-01-31T01:07:23.255Z,2.6
2023-01-31T01:08:32.643Z,3
2023-01-31T01:09:40.421Z,2.8
2023-01-31T01:10:48.664Z,3.6
2023-01-31T01:11:57.141Z,3.7
2023-01-31T01:13:04.461Z,4.1
2023-01-31T01:14:12.775Z,4.3
2023-01-31T01:15:21.036Z,4.5
2023-01-31T01:16:28.331Z,4.1
2023-01-31T01:17:38.380Z,3.1
2023-01-31T01:18:46.872Z,3.4
2023-01-31T01:19:53.899Z,2.9
2023-01-31T01:21:01.284Z,2.9
2023-01-31T01:22:09.952Z,2.6
2023-01-31T01:23:20.091Z,2.5
2023-01-31T01:24:28.056Z,2.6
2023-01-31T01:25:35.103Z,2.6
2023-01-31T01:26:45.498Z,2.9
2023-01-31T01:27:52.976Z,2.6
2023-01-31T01:29:00.237Z,2.4
2023-01-31T01:30:08.486Z,2.5
2023-01-31T01:31:17.895Z,2.9
2023-01-31T01:32:25.268Z,3.1
2023-01-31T01:33:32.365Z,2.9
2023-01-31T01:34:40.169Z,2.5
2023-01-31T01:35:47.385Z,2.9
2023-01-31T01:36:54.739Z,3
2023-01-31T01:38:02.002Z,2.9
2023-01-31T01:39:10.204Z,2.9
2023-01-31T01:40:17.738Z,2.7
2023-01-31T01:41:26.965Z,2.4
2023-01-31T01:42:34.838Z,2.5
2023-01-31T01:43:43.232Z,2.8
2023-01-31T01:44:59.606Z,2.9
2023-01-31T01:46:06.849Z,2.6
2023-01-31T01:47:14.932Z,2.8
2023-01-31T01:48:27.787Z,2.8
2023-01-31T01:49:34.481Z,3
2023-01-31T01:50:42.725Z,2.9
2023-01-31T01:51:51.106Z,2.8
2023-01-31T01:52:59.668Z,2.4
2023-01-31T01:54:07.119Z,2.5
2023-01-31T01:55:14.607Z,2.4
2023-01-31T01:56:25.124Z,2.4
2023-01-31T01:57:33.500Z,2.4
2023-01-31T01:58:40.904Z,2.1
2023-01-31T01:59:53.079Z,2.4
2023-01-31T02:01:09.554Z,2.2
2023-01-31T02:02:16.996Z,2.5
2023-01-31T02:03:24.062Z,2.5
2023-01-31T02:04:31.485Z,2.6
2023-01-31T02:05:38.583Z,2.5
2023-01-31T02:06:52.309Z,2.5
2023-01-31T02:07:59.224Z,2.8
2023-01-31T02:09:07.175Z,2.9
2023-01-31T02:10:15.348Z,2.7
2023-01-31T02:11:22.606Z,2.5
2023-01-31T02:12:30.992Z,2.7
2023-01-31T02:13:39.712Z,2.7
2023-01-31T02:14:46.977Z,2.5
2023-01-31T02:15:54.291Z,2.7
2023-01-31T02:17:01.277Z,3.3
2023-01-31T02:18:08.392Z,2.8
2023-01-31T02:19:16.559Z,2.8
2023-01-31T02:20:24.066Z,2.8
2023-01-31T02:21:42.399Z,2.9
2023-01-31T02:22:54.724Z,3.1
2023-01-31T02:24:05.015Z,3.1
2023-01-31T02:25:18.704Z,3.2
2023-01-31T02:26:33.336Z,3.1
2023-01-31T02:27:52.067Z,3.1
2023-01-31T02:29:04.935Z,2.9
2023-01-31T02:30:22.918Z,2.9
2023-01-31T02:31:40.836Z,2.3
2023-01-31T02:32:54.105Z,2.6
2023-01-31T02:34:08.908Z,2.6
2023-01-31T02:35:23.408Z,2.7
2023-01-31T02:36:35.453Z,2.6
2023-01-31T02:37:52.389Z,2.3
2023-01-31T02:39:04.963Z,2.9
2023-01-31T02:40:15.061Z,2.4
2023-01-31T02:41:32.949Z,2.2
2023-01-31T02:42:51.644Z,2.3
2023-01-31T02:44:06.809Z,2.5
2023-01-31T02:45:30.587Z,2.3
2023-01-31T02:46:48.203Z,2.1
2023-01-31T02:48:03.482Z,2.5
2023-01-31T02:49:15.679Z,2.2
2023-01-31T02:50:25.908Z,2.1
2023-01-31T02:51:33.806Z,2.1
2023-01-31T02:52:42.063Z,2.4
2023-01-31T02:53:54.366Z,2.2
2023-01-31T02:55:09.855Z,2.2
2023-01-31T02:56:22.334Z,2.2
2023-01-31T02:57:34.151Z,2.1
2023-01-31T02:58:41.303Z,2.1
2023-01-31T02:59:51.248Z,2.2
2023-01-31T03:00:59.005Z,1.8
2023-01-31T03:02:06.844Z,1.8
2023-01-31T03:03:15.752Z,2
2023-01-31T03:04:25.581Z,1.7
2023-01-31T03:05:36.575Z,2.1
2023-01-31T03:06:44.616Z,2.1
2023-01-31T03:07:57.093Z,2.2
2023-01-31T03:09:04.597Z,1.8
2023-01-31T03:10:11.947Z,2.3
2023-01-31T03:11:24.151Z,2.4
2023-01-31T03:12:31.300Z,1.9
2023-01-31T03:13:49.019Z,2
2023-01-31T03:14:59.159Z,2
2023-01-31T03:16:09.735Z,2.2
2023-01-31T03:17:22.341Z,1.9
2023-01-31T03:18:45.568Z,2.1
2023-01-31T03:19:53.151Z,1.9
2023-01-31T03:21:05.792Z,1.7
2023-01-31T03:22:13.191Z,2.2
2023-01-31T03:23:21.561Z,1.9
2023-01-31T03:24:30.111Z,1.8
2023-01-31T03:25:37.426Z,1.8
2023-01-31T03:26:46.532Z,2.2
2023-01-31T03:27:53.815Z,2.1
2023-01-31T03:29:00.897Z,2.2
2023-01-31T03:30:08.361Z,2.4
2023-01-31T03:31:16.748Z,2.5
2023-01-31T03:32:27.076Z,2.3
2023-01-31T03:33:36.485Z,2.1
2023-01-31T03:34:44.089Z,2
2023-01-31T03:35:51.181Z,2.3
2023-01-31T03:37:07.239Z,2.1
2023-01-31T03:38:20.831Z,2.1
2023-01-31T03:39:30.907Z,2
2023-01-31T03:40:42.010Z,2.5
2023-01-31T03:41:52.167Z,2.3
2023-01-31T03:43:04.620Z,2.2
2023-01-31T03:44:17.476Z,2.2
2023-01-31T03:45:30.249Z,2.4
2023-01-31T03:46:46.703Z,2.2
2023-01-31T03:47:54.287Z,2.3
2023-01-31T03:49:01.455Z,1.9
2023-01-31T03:50:08.734Z,2.2
2023-01-31T03:51:16.692Z,1.5
2023-01-31T03:52:24.095Z,1.9
2023-01-31T03:53:34.936Z,1.9
2023-01-31T03:54:43.210Z,1.9
2023-01-31T03:55:52.183Z,2
2023-01-31T03:57:02.954Z,2
2023-01-31T03:58:10.171Z,1.6
2023-01-31T03:59:17.258Z,1.7
2023-01-31T04:00:25.649Z,1.9
2023-01-31T04:01:32.695Z,1.9
2023-01-31T04:02:41.248Z,1.6
2023-01-31T04:03:48.288Z,1.7
2023-01-31T04:04:55.644Z,1.9
2023-01-31T04:06:02.575Z,1.9
2023-01-31T04:07:09.795Z,2
2023-01-31T04:08:16.959Z,2
2023-01-31T04:09:24.051Z,1.9
2023-01-31T04:10:31.454Z,1.9
2023-01-31T04:11:40.359Z,1.7
2023-01-31T04:12:47.446Z,1.9
2023-01-31T04:13:55.719Z,1.9
2023-01-31T04:15:03.949Z,1.8
2023-01-31T04:16:12.420Z,1.9
2023-01-31T04:17:19.588Z,1.8
2023-01-31T04:18:27.646Z,1.8
2023-01-31T04:19:34.832Z,2.1
2023-01-31T04:20:42.590Z,2.3
2023-01-31T04:21:49.616Z,2.3
2023-01-31T04:22:57.195Z,1.8
2023-01-31T04:24:04.520Z,1.8
2023-01-31T04:25:12.557Z,1.7
2023-01-31T04:26:19.681Z,1.7
2023-01-31T04:27:27.345Z,1.5
2023-01-31T04:28:34.730Z,1.6
2023-01-31T04:29:41.620Z,1.4
2023-01-31T04:30:48.615Z,1.4
2023-01-31T04:31:58.542Z,1.6
2023-01-31T04:33:06.379Z,2
2023-01-31T04:34:13.568Z,1.9
2023-01-31T04:35:21.862Z,2.4
2023-01-31T04:36:28.511Z,1.8
2023-01-31T04:37:35.684Z,1.6
2023-01-31T04:38:42.821Z,2.1
2023-01-31T04:39:50.375Z,1.8
2023-01-31T04:40:57.363Z,2.2
2023-01-31T04:42:04.634Z,1.8
2023-01-31T04:43:11.673Z,2.2
2023-01-31T04:44:18.832Z,1.9
2023-01-31T04:45:25.892Z,2.2
2023-01-31T04:46:33.278Z,2.6
2023-01-31T04:47:40.331Z,2.7
2023-01-31T04:48:47.865Z,3.1
2023-01-31T04:49:56.746Z,3.3
2023-01-31T04:51:04.351Z,3.5
2023-01-31T04:52:11.997Z,3
2023-01-31T04:53:18.995Z,3
2023-01-31T04:54:26.235Z,3.5
2023-01-31T04:55:34.059Z,3.4
2023-01-31T04:56:42.551Z,3.2
2023-01-31T04:57:49.913Z,2.7
2023-01-31T04:58:57.207Z,3
2023-01-31T05:00:04.319Z,3
2023-01-31T05:01:11.881Z,3.1
2023-01-31T05:02:19.354Z,3.2
2023-01-31T05:03:27.428Z,3.2
2023-01-31T05:04:34.762Z,2.9
2023-01-31T05:05:42.318Z,2.7
2023-01-31T05:06:53.050Z,3.7
2023-01-31T05:08:00.368Z,2.7
2023-01-31T05:09:07.891Z,3.3
2023-01-31T05:10:16.220Z,3.9
2023-01-31T05:11:23.959Z,3.8
2023-01-31T05:12:32.003Z,4.1
2023-01-31T05:13:39.862Z,5.3
2023-01-31T05:14:47.756Z,5
2023-01-31T05:15:55.463Z,5.4
2023-01-31T05:17:03.128Z,5.4
2023-01-31T05:18:11.364Z,5.1
2023-01-31T05:19:19.416Z,4.8
2023-01-31T05:20:27.376Z,4.3
2023-01-31T05:21:34.812Z,4.1
2023-01-31T05:22:43.463Z,3.6
2023-01-31T05:23:52.690Z,3.7
2023-01-31T05:24:59.712Z,3.6
2023-01-31T05:26:07.073Z,3.6
2023-01-31T05:27:14.051Z,3.3
2023-01-31T05:28:22.086Z,2.6
2023-01-31T05:29:30.201Z,2.8
2023-01-31T05:30:37.620Z,3
2023-01-31T05:31:45.887Z,2.7
2023-01-31T05:32:58.632Z,2.8
2023-01-31T05:34:06.289Z,2.8
2023-01-31T05:35:13.720Z,2.9
2023-01-31T05:36:20.654Z,3.3
2023-01-31T05:37:28.616Z,2.9
2023-01-31T05:38:36.132Z,3.2
2023-01-31T05:39:43.277Z,3.2
2023-01-31T05:40:52.651Z,3.9
2023-01-31T05:41:59.754Z,5
2023-01-31T05:43:06.927Z,5.3
2023-01-31T05:44:14.109Z,3.8
2023-01-31T05:45:21.540Z,3.8
2023-01-31T05:46:28.436Z,4.9
2023-01-31T05:47:35.599Z,4.7
2023-01-31T05:48:44.563Z,3.5
2023-01-31T05:49:51.727Z,4.6
2023-01-31T05:51:00.804Z,5.3
2023-01-31T05:52:08.786Z,3.5
2023-01-31T05:53:16.208Z,3.7
2023-01-31T05:54:23.371Z,4.6
2023-01-31T05:55:32.239Z,5
2023-01-31T05:56:40.302Z,5.4
2023-01-31T05:57:47.140Z,4.6
2023-01-31T05:58:54.687Z,4
2023-01-31T06:00:03.225Z,4.9
2023-01-31T06:01:10.877Z,5.1
2023-01-31T06:02:18.054Z,4.2
2023-01-31T06:03:25.115Z,3.5
2023-01-31T06:04:32.713Z,4.3
2023-01-31T06:05:41.060Z,8
2023-01-31T06:06:48.291Z,6.8
2023-01-31T06:07:55.463Z,5.2
2023-01-31T06:09:03.458Z,6.3
2023-01-31T06:10:28.246Z,7.8
2023-01-31T06:11:36.091Z,6.9
2023-01-31T06:12:43.781Z,5.5
2023-01-31T06:13:51.120Z,4.2
2023-01-31T06:14:58.567Z,5.6
2023-01-31T06:16:05.743Z,5.5
2023-01-31T06:17:13.199Z,5.3
2023-01-31T06:18:21.663Z,6.4
2023-01-31T06:19:29.679Z,6.7
2023-01-31T06:20:37.142Z,6.1
2023-01-31T06:21:46.935Z,4.5
2023-01-31T06:22:54.071Z,4
2023-01-31T06:24:02.526Z,4.3
2023-01-31T06:25:10.866Z,4.3
2023-01-31T06:26:18.399Z,5.1
2023-01-31T06:27:27.553Z,4.3
2023-01-31T06:28:36.762Z,3.9
2023-01-31T06:29:45.243Z,3.8
2023-01-31T06:30:52.629Z,3.8
2023-01-31T06:31:59.961Z,3.6
2023-01-31T06:33:07.604Z,3.6
2023-01-31T06:34:15.149Z,4.2
2023-01-31T06:35:23.256Z,4.4
2023-01-31T06:36:31.983Z,4.1
2023-01-31T06:37:39.941Z,4
2023-01-31T06:38:49.207Z,4.7
2023-01-31T06:39:57.896Z,4.1
2023-01-31T06:41:05.255Z,5.1
2023-01-31T06:42:14.375Z,4.2
2023-01-31T06:43:22.197Z,5.6
2023-01-31T06:44:32.909Z,5.4
2023-01-31T06:45:42.017Z,5.6
2023-01-31T06:46:51.013Z,7.1
2023-01-31T06:48:00.628Z,6.3
2023-01-31T06:49:09.030Z,5.5
2023-01-31T06:50:17.083Z,6.5
2023-01-31T06:51:24.296Z,6.5
2023-01-31T06:52:33.672Z,5.9
2023-01-31T06:53:41.747Z,5.8
2023-01-31T06:54:50.283Z,5
2023-01-31T06:55:57.548Z,5.3
2023-01-31T06:57:05.614Z,5.1
2023-01-31T06:58:13.542Z,5.8
2023-01-31T06:59:20.936Z,5.5
2023-01-31T07:00:30.568Z,6.2
2023-01-31T07:01:37.764Z,6.2
2023-01-31T07:02:46.357Z,6.7
2023-01-31T07:03:53.464Z,6.8
2023-01-31T07:05:01.756Z,6.2
2023-01-31T07:06:09.589Z,5.4
2023-01-31T07:07:19.677Z,6.3
2023-01-31T07:08:28.217Z,5.3
2023-01-31T07:09:36.156Z,5.6
2023-01-31T07:10:44.456Z,5.6
2023-01-31T07:11:51.439Z,5.2
2023-01-31T07:12:58.746Z,6
2023-01-31T07:14:07.088Z,6
2023-01-31T07:15:16.057Z,6
2023-01-31T07:16:24.629Z,5.9
2023-01-31T07:17:32.840Z,5.6
2023-01-31T07:18:41.874Z,5.8
2023-01-31T07:19:49.258Z,5.2
2023-01-31T07:20:56.416Z,5.8
2023-01-31T07:22:04.797Z,6.6
2023-01-31T07:23:12.113Z,6.1
2023-01-31T07:24:20.721Z,6
2023-01-31T07:25:29.210Z,5.4
2023-01-31T07:26:37.227Z,5.2
2023-01-31T07:27:45.607Z,6
2023-01-31T07:28:54.066Z,5
2023-01-31T07:30:01.521Z,5.9
2023-01-31T07:31:08.927Z,5.7
2023-01-31T07:32:16.194Z,4.8
2023-01-31T07:33:24.510Z,4.8
2023-01-31T07:34:32.258Z,5.1
2023-01-31T07:35:39.852Z,5.1
2023-01-31T07:36:47.733Z,4.9
2023-01-31T07:37:56.020Z,5
2023-01-31T07:39:04.196Z,4.9
2023-01-31T07:40:11.584Z,4.8
2023-01-31T07:41:19.377Z,4.9
2023-01-31T07:42:28.439Z,4.9
2023-01-31T07:43:35.837Z,5.2
2023-01-31T07:44:42.963Z,5.1
2023-01-31T07:45:50.184Z,5.2
2023-01-31T07:46:57.274Z,4.8
2023-01-31T07:48:04.717Z,4.8
2023-01-31T07:49:14.005Z,5.1
2023-01-31T07:50:22.801Z,5.2
2023-01-31T07:51:29.912Z,5.6
2023-01-31T07:52:36.926Z,5.7
2023-01-31T07:53:44.804Z,5.4
2023-01-31T07:54:52.842Z,6.1
2023-01-31T07:56:01.611Z,6.3
2023-01-31T07:57:17.016Z,5.5
2023-01-31T07:58:25.346Z,5.8
2023-01-31T07:59:33.149Z,5.1
2023-01-31T08:00:40.340Z,5
2023-01-31T08:01:53.959Z,6.1
2023-01-31T08:03:07.128Z,5.6
2023-01-31T08:04:24.911Z,5.4
2023-01-31T08:05:32.396Z,5.6
2023-01-31T08:06:39.839Z,5.8
2023-01-31T08:07:48.672Z,5.8
2023-01-31T08:08:55.804Z,5.8
2023-01-31T08:10:02.896Z,5.5
2023-01-31T08:11:11.231Z,6.3
2023-01-31T08:12:20.639Z,5.8
2023-01-31T08:13:27.847Z,5.3
2023-01-31T08:14:35.883Z,5
2023-01-31T08:15:44.495Z,5.2
2023-01-31T08:16:52.742Z,5.1
2023-01-31T08:18:00.208Z,5.7
2023-01-31T08:19:07.879Z,6
2023-01-31T08:20:16.277Z,5.9
2023-01-31T08:21:23.341Z,5.6
2023-01-31T08:22:31.732Z,5.1
2023-01-31T08:23:38.668Z,5
2023-01-31T08:24:45.764Z,5.6
2023-01-31T08:25:52.773Z,5.6
2023-01-31T08:27:02.935Z,5.1
2023-01-31T08:28:10.144Z,5.8
2023-01-31T08:29:17.267Z,6.5
2023-01-31T08:30:25.273Z,6.7
2023-01-31T08:31:32.755Z,5.7
2023-01-31T08:32:41.168Z,6.4
2023-01-31T08:33:48.500Z,6.7
2023-01-31T08:34:56.355Z,7.1
2023-01-31T08:36:04.912Z,42.2
2023-01-31T08:37:18.636Z,36.4
2023-01-31T08:38:26.167Z,18.9
2023-01-31T08:39:33.533Z,8.6
2023-01-31T08:40:40.726Z,15.8
2023-01-31T08:41:48.827Z,90.2
2023-01-31T08:42:56.378Z,51
2023-01-31T08:44:04.781Z,104.5
2023-01-31T08:45:11.939Z,20.4
2023-01-31T08:46:19.923Z,63.2
2023-01-31T08:47:30.608Z,88.2
2023-01-31T08:48:38.896Z,6.8
2023-01-31T08:49:46.719Z,12.3
2023-01-31T08:50:53.972Z,11.3
2023-01-31T08:52:01.349Z,9.9
2023-01-31T08:53:08.559Z,6.6
2023-01-31T08:54:17.028Z,6.2
2023-01-31T08:55:24.223Z,6.7
2023-01-31T08:56:31.516Z,6.7
2023-01-31T08:57:49.076Z,7.9
2023-01-31T08:58:49.696Z,6.2
2023-01-31T08:59:57.447Z,6.2
2023-01-31T09:01:04.799Z,6.6
2023-01-31T09:02:15.911Z,5.2
2023-01-31T09:03:24.244Z,5.2
2023-01-31T09:04:31.559Z,4.5
2023-01-31T09:05:40.075Z,5.2
2023-01-31T09:06:47.359Z,6.9
2023-01-31T09:07:56.027Z,5.5
2023-01-31T09:09:05.148Z,5.4
2023-01-31T09:10:13.684Z,5.9
2023-01-31T09:11:23.775Z,7.1
2023-01-31T09:12:31.286Z,8.9
2023-01-31T09:13:39.223Z,8.7
2023-01-31T09:14:46.120Z,6.9
2023-01-31T09:15:54.189Z,6.1
2023-01-31T09:17:01.494Z,8.3
2023-01-31T09:18:08.673Z,8.3
2023-01-31T09:19:16.077Z,5.6
2023-01-31T09:20:28.757Z,5.5
2023-01-31T09:21:38.499Z,6.7
2023-01-31T09:22:47.648Z,6.7
2023-01-31T09:23:56.115Z,6.8
2023-01-31T09:25:03.588Z,7.2
2023-01-31T09:26:12.950Z,7.2
2023-01-31T09:27:19.911Z,6.5
2023-01-31T09:28:28.708Z,6.5
2023-01-31T09:29:35.618Z,7.5
2023-01-31T09:30:42.878Z,6.9
2023-01-31T09:31:49.997Z,8.5
2023-01-31T09:32:58.046Z,8.5
2023-01-31T09:34:06.604Z,8.5
2023-01-31T09:35:14.401Z,8.3
2023-01-31T09:36:22.101Z,8.1
2023-01-31T09:37:29.609Z,6
2023-01-31T09:38:37.892Z,5.5
2023-01-31T09:39:45.769Z,5.3
2023-01-31T09:40:53.560Z,5.8
2023-01-31T09:42:01.608Z,5.4
2023-01-31T09:43:19.213Z,5
2023-01-31T09:44:28.888Z,11.1
2023-01-31T09:45:37.048Z,6.8
2023-01-31T09:46:44.945Z,6
2023-01-31T09:47:57.056Z,6.2
2023-01-31T09:49:04.465Z,6.2
2023-01-31T09:50:13.363Z,6.2
2023-01-31T09:51:25.625Z,8.3
2023-01-31T09:52:33.241Z,7
2023-01-31T09:53:40.889Z,7.1
2023-01-31T09:54:50.117Z,5.8
2023-01-31T09:55:59.226Z,5.7
2023-01-31T09:57:16.945Z,7
2023-01-31T09:58:24.529Z,7.1
2023-01-31T09:59:32.173Z,6.2
2023-01-31T10:00:46.913Z,8.8
2023-01-31T10:01:57.125Z,8.9
2023-01-31T10:03:08.126Z,7.1
2023-01-31T10:04:22.748Z,6.4
2023-01-31T10:05:39.078Z,5.6
2023-01-31T10:06:48.218Z,5.9
2023-01-31T10:08:04.577Z,5.8
2023-01-31T10:09:16.709Z,5.5
2023-01-31T10:10:24.238Z,4.7
2023-01-31T10:11:38.397Z,4.6
2023-01-31T10:12:52.704Z,5.6
2023-01-31T10:14:02.741Z,5.7
2023-01-31T10:15:21.482Z,5.2
2023-01-31T10:16:36.835Z,5
2023-01-31T10:17:52.199Z,5.6
2023-01-31T10:19:01.232Z,6
2023-01-31T10:20:13.306Z,5.1
2023-01-31T10:21:24.115Z,6
2023-01-31T10:22:41.275Z,7.2
2023-01-31T10:23:54.662Z,4.9
2023-01-31T10:25:02.735Z,7.3
2023-01-31T10:26:15.744Z,6.2
2023-01-31T10:27:25.084Z,5.3
2023-01-31T10:28:34.255Z,5
2023-01-31T10:29:51.483Z,5.7
2023-01-31T10:30:59.036Z,5.6
2023-01-31T10:32:10.040Z,6
2023-01-31T10:33:25.281Z,6
2023-01-31T10:34:40.917Z,8.6
2023-01-31T10:35:49.127Z,6.6
2023-01-31T10:36:57.200Z,6.3
2023-01-31T10:38:14.686Z,6.5
2023-01-31T10:39:26.360Z,14.6
2023-01-31T10:40:47.220Z,32.9
2023-01-31T10:41:59.690Z,16.5
2023-01-31T10:43:16.147Z,19.6
2023-01-31T10:44:26.165Z,12.5
2023-01-31T10:45:33.785Z,30.5
2023-01-31T10:46:41.598Z,21.2
2023-01-31T10:47:49.976Z,6.6
2023-01-31T10:48:58.985Z,5.6
2023-01-31T10:50:07.476Z,44
2023-01-31T10:51:17.982Z,24.1
2023-01-31T10:52:34.561Z,47.4
2023-01-31T10:53:47.842Z,46.6
2023-01-31T10:55:03.994Z,23.1
2023-01-31T10:56:23.280Z,6.1
2023-01-31T10:57:36.436Z,8.8
2023-01-31T10:58:44.130Z,6.8
2023-01-31T10:59:53.969Z,10
2023-01-31T11:01:02.036Z,16
2023-01-31T11:02:11.324Z,6.6
2023-01-31T11:03:24.667Z,8.9
2023-01-31T11:04:32.486Z,9.5
2023-01-31T11:05:40.047Z,5.7
2023-01-31T11:06:52.740Z,7.3
2023-01-31T11:08:02.755Z,6.5
2023-01-31T11:09:12.085Z,4.3
2023-01-31T11:10:20.870Z,4.3
2023-01-31T11:11:34.819Z,5.1
2023-01-31T11:12:42.583Z,5.9
2023-01-31T11:13:55.015Z,4.2
2023-01-31T11:15:10.219Z,4.3
2023-01-31T11:16:21.477Z,4.4
2023-01-31T11:17:28.960Z,4.1
2023-01-31T11:18:38.481Z,4.8
2023-01-31T11:19:46.081Z,4.6
2023-01-31T11:20:58.238Z,4.6
2023-01-31T11:22:05.402Z,4.4
2023-01-31T11:23:13.615Z,4.1
2023-01-31T11:24:20.576Z,4.5
2023-01-31T11:25:28.882Z,4.5
2023-01-31T11:26:36.844Z,4.5
2023-01-31T11:27:44.314Z,5
2023-01-31T11:28:52.694Z,5.7
2023-01-31T11:30:01.708Z,5.1
2023-01-31T11:31:10.997Z,5.1
2023-01-31T11:32:22.271Z,5.2
2023-01-31T11:33:30.499Z,5.3
2023-01-31T11:34:45.276Z,5.8
2023-01-31T11:35:57.992Z,5.8
2023-01-31T11:37:05.430Z,4.8
2023-01-31T11:38:21.970Z,5.2
2023-01-31T11:39:31.086Z,5.8
2023-01-31T11:40:38.815Z,5.4
2023-01-31T11:41:47.282Z,5
2023-01-31T11:42:55.017Z,4.8
2023-01-31T11:44:06.778Z,4.9
2023-01-31T11:45:15.178Z,5
2023-01-31T11:46:23.535Z,5.7
2023-01-31T11:47:32.841Z,7.7
2023-01-31T11:48:50.970Z,6.4
2023-01-31T11:49:58.967Z,7.4
2023-01-31T11:51:07.280Z,5.3
2023-01-31T11:52:16.652Z,6.3
2023-01-31T11:53:23.939Z,5
2023-01-31T11:54:36.265Z,5.7
2023-01-31T11:55:44.197Z,4
2023-01-31T11:56:55.704Z,4.5
2023-01-31T11:58:01.945Z,4.1
2023-01-31T11:59:14.537Z,3.9
2023-01-31T12:00:23.570Z,4.8
2023-01-31T12:01:30.546Z,5.4
2023-01-31T12:02:40.099Z,4
2023-01-31T12:04:01.116Z,4.5
2023-01-31T12:05:05.422Z,4
2023-01-31T12:06:16.372Z,3.9
2023-01-31T12:07:28.738Z,3.8
2023-01-31T12:08:36.653Z,3.2
2023-01-31T12:09:47.526Z,3.1
2023-01-31T12:10:55.174Z,3.4
2023-01-31T12:12:04.377Z,4.1
2023-01-31T12:13:18.404Z,3.7
2023-01-31T12:14:21.985Z,3.8
2023-01-31T12:15:36.806Z,3.7
2023-01-31T12:16:45.690Z,3.9
2023-01-31T12:17:54.236Z,3.8
2023-01-31T12:19:02.616Z,4.2
2023-01-31T12:20:27.354Z,4.4
2023-01-31T12:21:34.165Z,4.3
2023-01-31T12:22:52.425Z,20.4
2023-01-31T12:24:10.804Z,5
2023-01-31T12:25:25.479Z,5.2
2023-01-31T12:26:32.769Z,12.5
2023-01-31T12:27:51.734Z,13.6
2023-01-31T12:29:10.903Z,17.6
2023-01-31T12:30:20.619Z,4.6
2023-01-31T12:31:37.495Z,4.5
2023-01-31T12:32:57.004Z,4.8
2023-01-31T12:34:15.267Z,5.1
2023-01-31T12:35:33.621Z,4.4
2023-01-31T12:36:47.381Z,4.6
2023-01-31T12:38:03.591Z,4.7
2023-01-31T12:39:22.008Z,4.4
2023-01-31T12:40:39.797Z,6.9
2023-01-31T12:41:47.191Z,7
2023-01-31T12:42:59.046Z,4.7
2023-01-31T12:44:07.488Z,5.9
2023-01-31T12:45:26.564Z,4
2023-01-31T12:46:42.702Z,22.4
2023-01-31T12:48:00.422Z,35.5
2023-01-31T12:49:17.190Z,5.1
2023-01-31T12:50:35.080Z,20.6
2023-01-31T12:51:42.946Z,5.8
2023-01-31T12:52:56.118Z,5.2
2023-01-31T12:54:16.163Z,35
2023-01-31T12:55:29.316Z,7.3
2023-01-31T12:56:41.567Z,7.3
2023-01-31T12:58:03.437Z,19.6
2023-01-31T12:59:16.154Z,10.1
2023-01-31T13:00:31.125Z,3.8
2023-01-31T13:01:46.391Z,4.1
2023-01-31T13:03:02.811Z,7
2023-01-31T13:04:17.710Z,4.1
2023-01-31T13:05:33.068Z,13.2
2023-01-31T13:06:42.803Z,5
2023-01-31T13:07:51.131Z,4.9
2023-01-31T13:09:08.562Z,4.5
2023-01-31T13:10:15.259Z,14.8
2023-01-31T13:11:28.660Z,10.8
2023-01-31T13:12:41.259Z,4
2023-01-31T13:13:50.516Z,7.6
2023-01-31T13:15:02.867Z,7.6
2023-01-31T13:16:11.742Z,9.5
2023-01-31T13:17:24.606Z,6.5
2023-01-31T13:18:32.789Z,6
2023-01-31T13:19:41.415Z,8.9
2023-01-31T13:21:00.237Z,13.4
2023-01-31T13:22:07.908Z,8.9
2023-01-31T13:23:16.254Z,15.8
2023-01-31T13:24:25.992Z,9.5
2023-01-31T13:25:43.448Z,11.3
2023-01-31T13:26:51.413Z,12.5
2023-01-31T13:28:02.512Z,20.7
2023-01-31T13:29:18.181Z,14.2
2023-01-31T13:30:26.996Z,14.2
2023-01-31T13:31:43.343Z,14.2
2023-01-31T13:32:51.722Z,5.3
2023-01-31T13:33:59.144Z,7.3
2023-01-31T13:35:14.173Z,6.5
2023-01-31T13:36:21.530Z,4.6
2023-01-31T13:37:40.135Z,6.1
2023-01-31T13:38:48.805Z,5.9
2023-01-31T13:39:57.816Z,4.8
2023-01-31T13:41:06.320Z,5.5
2023-01-31T13:42:17.246Z,4.6
2023-01-31T13:43:26.553Z,9.2
2023-01-31T13:44:34.284Z,4.1
2023-01-31T13:45:42.813Z,6.8
2023-01-31T13:46:53.110Z,6.5
2023-01-31T13:48:00.183Z,6.5
2023-01-31T13:49:09.111Z,6.9
2023-01-31T13:50:22.753Z,5.7
2023-01-31T13:51:33.389Z,5.9
2023-01-31T13:52:49.628Z,8
2023-01-31T13:53:56.870Z,8.8
2023-01-31T13:55:09.200Z,8.7
2023-01-31T13:56:20.625Z,15.2
2023-01-31T13:57:35.346Z,19.4
2023-01-31T13:58:45.799Z,23.9
2023-01-31T13:59:54.129Z,13.3
2023-01-31T14:01:11.007Z,10.9
2023-01-31T14:02:23.666Z,11.3
2023-01-31T14:03:32.100Z,9.2
2023-01-31T14:04:50.640Z,7.3
2023-01-31T14:05:59.057Z,10.1
2023-01-31T14:07:07.985Z,11.2
2023-01-31T14:08:22.047Z,8.9
2023-01-31T14:09:35.769Z,10.4
2023-01-31T14:10:46.568Z,8.5
2023-01-31T14:11:53.496Z,8.9
2023-01-31T14:13:04.104Z,9.1
2023-01-31T14:14:17.464Z,11.9
2023-01-31T14:15:25.113Z,11.8
2023-01-31T14:16:41.387Z,9.8
2023-01-31T14:17:50.888Z,8.7
2023-01-31T14:19:00.467Z,6.5
2023-01-31T14:20:08.968Z,6.8
2023-01-31T14:21:28.783Z,5.5
2023-01-31T14:22:40.044Z,5.3
2023-01-31T14:23:49.040Z,5.3
2023-01-31T14:24:56.290Z,5.4
2023-01-31T14:26:07.402Z,6
2023-01-31T14:27:24.662Z,5.8
2023-01-31T14:28:37.778Z,6.3
2023-01-31T14:29:45.450Z,6.4
2023-01-31T14:30:58.548Z,6.8
2023-01-31T14:32:07.108Z,8.2
2023-01-31T14:33:21.080Z,8.9
2023-01-31T14:34:32.842Z,8.3
2023-01-31T14:35:41.627Z,7.4
2023-01-31T14:36:56.944Z,8.1
2023-01-31T14:38:10.284Z,9.2
2023-01-31T14:39:22.631Z,9.1
2023-01-31T14:40:40.533Z,8.6
2023-01-31T14:41:56.696Z,8.3
2023-01-31T14:43:11.009Z,8.7
2023-01-31T14:44:24.026Z,9.6
2023-01-31T14:45:43.995Z,10.2
2023-01-31T14:47:04.354Z,9.6
2023-01-31T14:48:17.712Z,9.9
2023-01-31T14:49:36.155Z,11.5
2023-01-31T14:50:54.200Z,10.3
2023-01-31T14:52:04.475Z,12
2023-01-31T14:53:20.813Z,11
2023-01-31T14:54:37.767Z,11.7
2023-01-31T14:55:50.288Z,10.4
2023-01-31T14:57:08.975Z,10.4
2023-01-31T14:58:16.775Z,9.9
2023-01-31T14:59:24.811Z,9.7
2023-01-31T15:00:37.509Z,10.4
2023-01-31T15:01:45.135Z,10.5
2023-01-31T15:02:53.817Z,11.5
2023-01-31T15:04:10.445Z,11.5
2023-01-31T15:05:18.627Z,11.5
2023-01-31T15:06:32.154Z,11.5
2023-01-31T15:07:41.257Z,11.5
2023-01-31T15:08:59.838Z,11.5
2023-01-31T15:10:19.249Z,11.5
2023-01-31T15:11:41.719Z,11.5
2023-01-31T15:12:41.733Z,11.5
2023-01-31T15:14:01.281Z,11.5
2023-01-31T15:15:20.309Z,11.5
2023-01-31T15:16:37.058Z,11.5
2023-01-31T15:17:45.214Z,11.5
2023-01-31T15:18:54.184Z,11.5
2023-01-31T15:20:02.489Z,11.5
2023-01-31T15:21:19.290Z,11.5
2023-01-31T15:22:26.735Z,11.5
2023-01-31T15:23:35.263Z,11.5
2023-01-31T15:24:42.771Z,11.5
2023-01-31T15:25:49.970Z,12.3
2023-01-31T15:26:58.427Z,12.8
2023-01-31T15:28:06.697Z,13.3
2023-01-31T15:29:14.482Z,11.7
2023-01-31T15:30:28.326Z,10.8
2023-01-31T15:31:37.783Z,10.1
2023-01-31T15:32:46.790Z,11
2023-01-31T15:33:58.262Z,11
2023-01-31T15:35:06.637Z,12.7
2023-01-31T15:36:19.209Z,12.2
2023-01-31T15:37:26.698Z,13.6
2023-01-31T15:38:34.410Z,11.8
2023-01-31T15:39:42.750Z,13.1
2023-01-31T15:40:50.665Z,10.9
2023-01-31T15:42:11.953Z,10.2
2023-01-31T15:43:29.303Z,11.8
2023-01-31T15:44:39.199Z,11.7
2023-01-31T15:45:47.869Z,11.7
2023-01-31T15:46:55.607Z,12.4
2023-01-31T15:48:05.233Z,11.1
2023-01-31T15:49:25.758Z,12.5
2023-01-31T15:50:30.569Z,12.4
2023-01-31T15:51:39.583Z,15.1
2023-01-31T15:52:46.603Z,15.6
2023-01-31T15:53:53.606Z,13.2
2023-01-31T15:55:04.246Z,17.2
2023-01-31T15:56:11.863Z,17.9
2023-01-31T15:57:26.337Z,16.9
2023-01-31T15:58:39.369Z,14.6
2023-01-31T15:59:49.894Z,15.2
2023-01-31T16:00:57.990Z,14.8
2023-01-31T16:02:06.357Z,14.6
2023-01-31T16:03:15.241Z,14.1